Maersk Windhoek — 3FWJ3 — position and weather

sailwx.info

Track history (hours):
 
Tides and Currents Weather Stations Pressure Air Temp Water Temp Dewpoint Dewpoint Depression Visibility Wind Speed Wind Dir Waves Ship Positions

Maersk Windhoek

Last reported at 2014-Dec-22 13:33 UTC. Time now 2014-Dec-22 14:15 UTC.
Position N 43°21' E 004°59'.

Length 172 m; draft 9.5 m.

Type: Ship (hazmat cat C). MMSI: 370431000.

Date/timePositionNaut miles runAvg speedWind from/ knotsBaromVisibWave heightAir tempDewpointWater temp
2014-Dec-22 13:33N 43°21' E 004°59'1010.2
2014-Dec-22 12:33N 43°10' E 005°01'16816.7
2014-Dec-22 02:27N 41°17' E 002°14'4 3.9
2014-Dec-22 01:26N 41°18' E 002°09'0 0.0
2014-Dec-22 00:24N 41°18' E 002°09'0 0.0
2014-Dec-21 23:12N 41°18' E 002°09'0 0.0
2014-Dec-21 21:30N 41°18' E 002°09'0 0.0
2014-Dec-21 20:30N 41°18' E 002°09'0 0.0
2014-Dec-21 18:21N 41°18' E 002°09'0 0.0
2014-Dec-21 17:30N 41°18' E 002°09'0 0.0
2014-Dec-21 16:12N 41°18' E 002°09'0 0.0
2014-Dec-21 15:18N 41°18' E 002°09'0 0.0
2014-Dec-21 14:30N 41°18' E 002°09'4 3.2
2014-Dec-21 13:13N 41°15' E 002°11'6 8.9
2014-Dec-21 12:34N 41°09' E 002°10'1 0.3
2014-Dec-21 09:03N 41°09' E 002°11'1 1.8
2014-Dec-21 08:33N 41°09' E 002°12'2 1.9
2014-Dec-21 07:33N 41°11' E 002°12'1 0.9
2014-Dec-21 06:26N 41°12' E 002°11'1516.7
2014-Dec-21 05:33N 41°01' E 001°60'1717.2
2014-Dec-21 04:33N 40°47' E 001°46'1717.0
2014-Dec-21 03:33N 40°33' E 001°33'1616.4
2014-Dec-21 02:33N 40°19' E 001°21'1615.9
2014-Dec-21 01:33N 40°06' E 001°10'1716.7
2014-Dec-21 00:33N 39°52' E 000°58'5415.9
2014-Dec-20 21:08N 39°27' W 000°05'915.9
2014-Dec-20 20:33N 39°25' W 000°17'2 2.1
2014-Dec-20 19:28N 39°26' W 000°19'0 0.0
2014-Dec-20 18:31N 39°26' W 000°19'0 0.0
2014-Dec-20 17:31N 39°26' W 000°19'0 0.0
2014-Dec-20 16:31N 39°26' W 000°19'0 0.0
2014-Dec-20 15:31N 39°26' W 000°19'0 0.0
2014-Dec-20 14:31N 39°26' W 000°19'0 0.0
2014-Dec-20 13:22N 39°26' W 000°19'0 0.0
2014-Dec-20 12:31N 39°26' W 000°19'0 0.0
2014-Dec-20 11:31N 39°26' W 000°19'0 0.0
2014-Dec-20 10:31N 39°26' W 000°19'0 0.0
2014-Dec-20 09:31N 39°26' W 000°19'0 0.0
2014-Dec-20 08:31N 39°26' W 000°19'0 0.3
2014-Dec-20 07:30N 39°26' W 000°19'0 0.0
2014-Dec-20 06:30N 39°26' W 000°19'0 0.0
2014-Dec-20 05:33N 39°26' W 000°19'0 0.0
2014-Dec-20 04:33N 39°26' W 000°20'0 0.0
2014-Dec-20 03:33N 39°26' W 000°19'0 0.0
2014-Dec-20 02:33N 39°26' W 000°20'0 0.0
2014-Dec-20 01:33N 39°26' W 000°20'0 0.0
2014-Dec-20 00:33N 39°26' W 000°20'0 0.0
2014-Dec-19 23:33N 39°26' W 000°19'0 0.0
2014-Dec-19 22:33N 39°26' W 000°20'0 0.0
2014-Dec-19 21:33N 39°26' W 000°20'0 0.0
2014-Dec-19 20:33N 39°26' W 000°20'0 0.0
2014-Dec-19 19:33N 39°26' W 000°20'0 0.0
2014-Dec-19 18:33N 39°26' W 000°20'0 0.0
2014-Dec-19 17:33N 39°26' W 000°19'0 0.0
2014-Dec-19 16:33N 39°26' W 000°20'0 0.0
2014-Dec-19 15:33N 39°26' W 000°20'0 0.0
2014-Dec-19 14:33N 39°26' W 000°19'0 0.1
2014-Dec-19 13:33N 39°26' W 000°19'4 4.5
2014-Dec-19 12:33N 39°25' W 000°14'1 1.1
2014-Dec-19 11:33N 39°25' W 000°12'4715.6
2014-Dec-19 08:31N 38°59' E 000°39'3417.5
2014-Dec-19 06:33N 38°38' E 001°14'1717.6
2014-Dec-19 05:33N 38°29' E 001°33'1817.7
2014-Dec-19 04:33N 38°20' E 001°53'1818.0
2014-Dec-19 03:33N 38°11' E 002°13'1817.7
2014-Dec-19 02:33N 38°03' E 002°33'1717.1
2014-Dec-19 01:33N 37°56' E 002°52'1716.6
2014-Dec-19 00:33N 37°48' E 003°11'  
Track history (hours):
 
Tides and Currents Weather Stations Pressure Air Temp Water Temp Dewpoint Dewpoint Depression Visibility Wind Speed Wind Dir Waves Ship Positions

Maersk Windhoek

Last reported at 2014-Dec-22 13:33 UTC. Time now 2014-Dec-22 14:15 UTC.
Position N 43°21' E 004°59'.

Length 172 m; draft 9.5 m.

Type: Ship (hazmat cat C). MMSI: 370431000.

Date/timePositionNaut miles runAvg speedWind from/ knotsBaromVisibWave heightAir tempDewpointWater temp
2014-Dec-22 13:33N 43°21' E 004°59'1010.2
2014-Dec-22 12:33N 43°10' E 005°01'16816.7
2014-Dec-22 02:27N 41°17' E 002°14'4 3.9
2014-Dec-22 01:26N 41°18' E 002°09'0 0.0
2014-Dec-22 00:24N 41°18' E 002°09'0 0.0
2014-Dec-21 23:12N 41°18' E 002°09'0 0.0
2014-Dec-21 21:30N 41°18' E 002°09'0 0.0
2014-Dec-21 20:30N 41°18' E 002°09'0 0.0
2014-Dec-21 18:21N 41°18' E 002°09'0 0.0
2014-Dec-21 17:30N 41°18' E 002°09'0 0.0
2014-Dec-21 16:12N 41°18' E 002°09'0 0.0
2014-Dec-21 15:18N 41°18' E 002°09'0 0.0
2014-Dec-21 14:30N 41°18' E 002°09'4 3.2
2014-Dec-21 13:13N 41°15' E 002°11'6 8.9
2014-Dec-21 12:34N 41°09' E 002°10'1 0.3
2014-Dec-21 09:03N 41°09' E 002°11'1 1.8
2014-Dec-21 08:33N 41°09' E 002°12'2 1.9
2014-Dec-21 07:33N 41°11' E 002°12'1 0.9
2014-Dec-21 06:26N 41°12' E 002°11'1516.7
2014-Dec-21 05:33N 41°01' E 001°60'1717.2
2014-Dec-21 04:33N 40°47' E 001°46'1717.0
2014-Dec-21 03:33N 40°33' E 001°33'1616.4
2014-Dec-21 02:33N 40°19' E 001°21'1615.9
2014-Dec-21 01:33N 40°06' E 001°10'1716.7
2014-Dec-21 00:33N 39°52' E 000°58'5415.9
2014-Dec-20 21:08N 39°27' W 000°05'915.9
2014-Dec-20 20:33N 39°25' W 000°17'2 2.1
2014-Dec-20 19:28N 39°26' W 000°19'0 0.0
2014-Dec-20 18:31N 39°26' W 000°19'0 0.0
2014-Dec-20 17:31N 39°26' W 000°19'0 0.0
2014-Dec-20 16:31N 39°26' W 000°19'0 0.0
2014-Dec-20 15:31N 39°26' W 000°19'0 0.0
2014-Dec-20 14:31N 39°26' W 000°19'0 0.0
2014-Dec-20 13:22N 39°26' W 000°19'0 0.0
2014-Dec-20 12:31N 39°26' W 000°19'0 0.0
2014-Dec-20 11:31N 39°26' W 000°19'0 0.0
2014-Dec-20 10:31N 39°26' W 000°19'0 0.0
2014-Dec-20 09:31N 39°26' W 000°19'0 0.0
2014-Dec-20 08:31N 39°26' W 000°19'0 0.3
2014-Dec-20 07:30N 39°26' W 000°19'0 0.0
2014-Dec-20 06:30N 39°26' W 000°19'0 0.0
2014-Dec-20 05:33N 39°26' W 000°19'0 0.0
2014-Dec-20 04:33N 39°26' W 000°20'0 0.0
2014-Dec-20 03:33N 39°26' W 000°19'0 0.0
2014-Dec-20 02:33N 39°26' W 000°20'0 0.0
2014-Dec-20 01:33N 39°26' W 000°20'0 0.0
2014-Dec-20 00:33N 39°26' W 000°20'0 0.0
2014-Dec-19 23:33N 39°26' W 000°19'0 0.0
2014-Dec-19 22:33N 39°26' W 000°20'0 0.0
2014-Dec-19 21:33N 39°26' W 000°20'0 0.0
2014-Dec-19 20:33N 39°26' W 000°20'0 0.0
2014-Dec-19 19:33N 39°26' W 000°20'0 0.0
2014-Dec-19 18:33N 39°26' W 000°20'0 0.0
2014-Dec-19 17:33N 39°26' W 000°19'0 0.0
2014-Dec-19 16:33N 39°26' W 000°20'0 0.0
2014-Dec-19 15:33N 39°26' W 000°20'0 0.0
2014-Dec-19 14:33N 39°26' W 000°19'0 0.1
2014-Dec-19 13:33N 39°26' W 000°19'4 4.5
2014-Dec-19 12:33N 39°25' W 000°14'1 1.1
2014-Dec-19 11:33N 39°25' W 000°12'4715.6
2014-Dec-19 08:31N 38°59' E 000°39'3417.5
2014-Dec-19 06:33N 38°38' E 001°14'1717.6
2014-Dec-19 05:33N 38°29' E 001°33'1817.7
2014-Dec-19 04:33N 38°20' E 001°53'1818.0
2014-Dec-19 03:33N 38°11' E 002°13'1817.7
2014-Dec-19 02:33N 38°03' E 002°33'1717.1
2014-Dec-19 01:33N 37°56' E 002°52'1716.6
2014-Dec-19 00:33N 37°48' E 003°11'  

Dump ship's entire track history